Terminal Aerodrome Forecast
Issued by NWS Charleston, WV

Current Version | Previous Version | Graphics & Text | Print | Product List | Glossary On
Versions: 1 2 3 4 5 6 7 8 9 10 11 12 13 14 15 16 17 18 19 20 21 22 23 24
000
FTUS41 KRLX 011130
TAFHTS
TAF
KHTS 011130Z 0112/0212 16007KT 6SM -RA BR SCT050 BKN080
     FM011300 20004KT P6SM VCTS BKN040CB
     FM012000 24005G22KT P6SM -TSRA BKN050CB
     FM020400 VRB03KT P6SM -SHRA VCTS BKN050CB
     FM020600 21005KT P6SM BKN015
     FM020900 21005KT 3SM BR BKN003=

USA.gov is the U.S. government's official web portal to all federal, state and local government web resources and services.